Time;durP1;ratioP1;P1;durP2;ratioP2;P2;SDS_P1;SDS_P2;PMS_P1;PMS_P2;Temp;Humidity;BMP_temperature;BMP_pressure;BME280_temperature;BME280_humidity;BME280_pressure;Samples;Min_cycle;Max_cycle;Signal;HPM_P1;HPM_P2
2022/01/08 00:00:39;;;;;;;0.63;0.57;;;;;;;1.11;88.38;101168.47;4973774;28;97922;-42
2022/01/08 00:03:05;;;;;;;1.58;0.90;;;;;;;1.07;88.11;101164.09;4972673;28;99059;-42
2022/01/08 00:05:30;;;;;;;0.80;0.65;;;;;;;1.12;88.16;101174.69;4972877;28;122077;-42
2022/01/08 00:07:55;;;;;;;1.20;0.68;;;;;;;0.97;87.91;101154.50;4973321;28;114959;-42
2022/01/08 00:10:22;;;;;;;0.82;0.77;;;;;;;1.08;87.97;101179.22;4972898;28;99435;-42
2022/01/08 00:12:49;;;;;;;0.43;0.32;;;;;;;0.94;88.04;101154.56;4972215;28;98856;-42
2022/01/08 00:15:14;;;;;;;0.80;0.77;;;;;;;0.92;87.99;101159.91;4973610;28;96625;-43
2022/01/08 00:17:40;;;;;;;2.85;0.95;;;;;;;0.92;88.01;101156.38;4973888;28;96793;-42
2022/01/08 00:20:06;;;;;;;3.30;1.17;;;;;;;0.89;88.02;101162.63;4973527;28;101284;-42
2022/01/08 00:22:31;;;;;;;1.13;0.63;;;;;;;1.02;87.89;101182.84;4972080;28;102640;-42
2022/01/08 00:24:56;;;;;;;0.05;0.05;;;;;;;0.75;88.18;101143.31;4973626;28;97073;-42
2022/01/08 00:27:22;;;;;;;0.30;0.20;;;;;;;0.99;87.86;101187.38;4972896;28;121518;-42
2022/01/08 00:29:49;;;;;;;1.55;0.60;;;;;;;0.89;88.29;101175.97;4973522;28;97915;-42
2022/01/08 00:32:15;;;;;;;0.32;0.30;;;;;;;0.87;88.15;101171.56;4971470;28;100788;-42
2022/01/08 00:34:42;;;;;;;0.68;0.55;;;;;;;0.74;88.13;101149.53;4972811;28;96501;-42
2022/01/08 00:37:07;;;;;;;0.88;0.17;;;;;;;0.98;87.98;101174.94;4972076;28;96939;-42
2022/01/08 00:39:33;;;;;;;0.55;0.55;;;;;;;1.08;87.88;101183.66;4973282;28;97921;-42
2022/01/08 00:41:58;;;;;;;0.57;0.45;;;;;;;1.11;87.85;101183.59;4971804;28;99104;-42
2022/01/08 00:44:24;;;;;;;0.10;0.10;;;;;;;1.11;87.81;101186.28;4971398;28;106523;-42
2022/01/08 00:46:49;;;;;;;0.80;0.43;;;;;;;1.02;87.87;101168.63;4973144;28;96764;-43
2022/01/08 00:49:14;;;;;;;0.10;0.10;;;;;;;1.14;88.01;101178.22;4973020;28;103984;-41
2022/01/08 00:51:40;;;;;;;0.98;0.63;;;;;;;1.12;87.88;101180.94;4972966;28;111919;-42
2022/01/08 00:54:05;;;;;;;0.00;0.00;;;;;;;1.01;87.71;101158.88;4973021;28;96604;-42
2022/01/08 00:56:30;;;;;;;0.20;0.20;;;;;;;0.96;87.75;101150.97;4972229;28;114178;-42
2022/01/08 00:58:56;;;;;;;0.65;0.38;;;;;;;1.00;88.19;101163.34;4971828;28;119721;-42
2022/01/08 01:01:21;;;;;;;0.15;0.08;;;;;;;0.99;87.80;101174.91;4973081;28;97584;-42
2022/01/08 01:03:46;;;;;;;0.65;0.45;;;;;;;0.98;88.16;101177.63;4972558;28;112605;-42
2022/01/08 01:06:12;;;;;;;0.20;0.00;;;;;;;0.96;88.06;101179.41;4973201;28;96772;-43
2022/01/08 01:08:37;;;;;;;0.10;0.10;;;;;;;1.09;87.88;101201.41;4972649;28;97813;-42
2022/01/08 01:11:02;;;;;;;0.10;0.10;;;;;;;1.08;87.91;101192.53;4972038;28;122796;-42
2022/01/08 01:13:28;;;;;;;0.10;0.10;;;;;;;0.87;87.90;101164.44;4972152;28;99938;-42
2022/01/08 01:15:53;;;;;;;0.00;0.00;;;;;;;1.07;88.17;101209.44;4973449;28;96795;-43
2022/01/08 01:18:18;;;;;;;0.10;0.05;;;;;;;1.04;87.93;101198.81;4972392;28;110591;-42
2022/01/08 01:20:44;;;;;;;0.15;0.10;;;;;;;0.98;88.29;101175.81;4972934;28;97664;-42
2022/01/08 01:23:17;;;;;;;0.52;0.20;;;;;;;1.00;88.02;101191.78;4972404;28;96528;-42
2022/01/08 01:25:49;;;;;;;0.08;0.08;;;;;;;0.96;88.00;101190.97;4971290;28;96587;-42
2022/01/08 01:28:38;;;;;;;0.10;0.10;;;;;;;0.95;88.31;101196.31;4972451;28;99423;-42
2022/01/08 01:47:02;;;;;;;0.63;0.63;;;;;;;0.88;87.91;101210.66;4972663;28;96810;-43
2022/01/08 01:49:39;;;;;;;0.00;0.00;;;;;;;0.88;87.92;101205.31;4971928;28;98720;-42
2022/01/08 01:52:07;;;;;;;0.00;0.00;;;;;;;0.87;88.17;101207.09;4972733;28;97233;-42
2022/01/08 01:54:33;;;;;;;0.03;0.03;;;;;;;0.76;88.20;101204.63;4970952;28;96707;-42
2022/01/08 01:57:01;;;;;;;0.43;0.35;;;;;;;0.88;88.00;101229.31;4970702;28;99847;-42
2022/01/08 01:59:28;;;;;;;0.20;0.20;;;;;;;0.66;87.84;101192.31;4972105;28;97701;-42
2022/01/08 02:02:06;;;;;;;0.00;0.00;;;;;;;0.76;88.05;101201.06;4970834;28;100587;-42
2022/01/08 02:04:31;;;;;;;0.22;0.20;;;;;;;0.95;88.04;101236.31;4972342;28;96502;-42
2022/01/08 02:06:57;;;;;;;0.22;0.15;;;;;;;0.97;87.78;101223.84;4972649;28;96782;-42
2022/01/08 02:09:22;;;;;;;2.58;0.15;;;;;;;0.87;87.55;101200.91;4971988;28;97949;-42
2022/01/08 02:12:18;;;;;;;1.75;0.60;;;;;;;1.01;87.86;101229.09;4971434;28;110888;-42
2022/01/08 02:14:47;;;;;;;0.10;0.10;;;;;;;0.92;87.90;101215.03;4965480;28;96994;-42
2022/01/08 02:17:13;;;;;;;1.00;0.40;;;;;;;1.02;87.82;101222.84;4970792;28;96818;-42
2022/01/08 02:19:40;;;;;;;0.17;0.15;;;;;;;0.96;87.94;101200.75;4971477;28;99302;-42
2022/01/08 02:22:06;;;;;;;0.45;0.43;;;;;;;1.10;87.83;101227.19;4970675;28;99083;-42
2022/01/08 02:24:32;;;;;;;0.70;0.40;;;;;;;0.96;87.63;101198.97;4973188;28;96498;-42
2022/01/08 02:26:57;;;;;;;0.30;0.25;;;;;;;1.15;87.68;101228.00;4975607;28;96774;-42
2022/01/08 02:29:24;;;;;;;0.80;0.10;;;;;;;1.15;87.87;101220.00;4975160;28;104831;-42
2022/01/08 02:32:00;;;;;;;0.03;0.03;;;;;;;1.13;87.78;101214.69;4973815;28;100972;-43
2022/01/08 02:34:27;;;;;;;0.00;0.00;;;;;;;1.06;87.74;101202.34;4975750;28;96429;-42
2022/01/08 02:36:54;;;;;;;0.40;0.08;;;;;;;1.02;87.69;101182.84;4975214;28;96749;-42
2022/01/08 02:39:20;;;;;;;0.73;0.32;;;;;;;1.24;87.88;101220.72;4973184;28;101647;-43
2022/01/08 02:41:46;;;;;;;0.00;0.00;;;;;;;1.13;87.67;101193.34;4974036;28;101048;-42
2022/01/08 02:44:12;;;;;;;0.25;0.25;;;;;;;1.15;87.68;101196.88;4975136;28;96604;-42
2022/01/08 02:46:41;;;;;;;1.00;0.20;;;;;;;0.93;88.01;101167.03;4973486;28;96633;-42
2022/01/08 02:49:07;;;;;;;0.10;0.10;;;;;;;1.10;87.50;101197.84;4973690;28;100783;-42
2022/01/08 02:51:35;;;;;;;0.47;0.30;;;;;;;1.22;87.43;101219.00;4973278;28;101443;-42
2022/01/08 02:54:03;;;;;;;0.08;0.05;;;;;;;1.24;87.61;101217.16;4973687;28;96491;-42
2022/01/08 02:56:28;;;;;;;0.30;0.20;;;;;;;1.12;87.98;101202.25;4973674;28;96842;-42
2022/01/08 02:58:54;;;;;;;0.00;0.00;;;;;;;1.15;87.59;101196.00;4974989;28;99491;-42
2022/01/08 03:01:20;;;;;;;0.63;0.57;;;;;;;1.21;87.61;101204.75;4974833;28;97335;-42
2022/01/08 03:03:45;;;;;;;0.00;0.00;;;;;;;1.16;87.86;101187.06;4973024;28;97217;-42
2022/01/08 03:06:10;;;;;;;0.08;0.08;;;;;;;1.23;87.59;101202.94;4975066;28;96868;-41
2022/01/08 03:08:36;;;;;;;0.90;0.35;;;;;;;1.33;87.65;101210.78;4974162;28;113443;-42
2022/01/08 03:11:01;;;;;;;0.00;0.00;;;;;;;1.18;87.60;101191.47;4974201;28;118707;-43
2022/01/08 03:13:26;;;;;;;0.00;0.00;;;;;;;1.26;87.69;101212.69;4974464;28;104204;-42
2022/01/08 03:15:52;;;;;;;0.28;0.28;;;;;;;1.40;87.99;101218.66;4973693;28;121858;-42
2022/01/08 03:18:17;;;;;;;0.40;0.20;;;;;;;1.45;87.97;101219.47;4974683;28;97931;-42
2022/01/08 03:21:00;;;;;;;2.20;0.30;;;;;;;1.36;87.45;101186.72;4974958;28;97836;-42
2022/01/08 03:23:34;;;;;;;1.30;0.63;;;;;;;1.48;87.64;101192.72;4974550;28;96651;-42
2022/01/08 03:26:00;;;;;;;0.35;0.20;;;;;;;1.48;86.97;101179.38;4973309;28;96757;-42
2022/01/08 03:28:25;;;;;;;3.85;0.40;;;;;;;1.55;87.12;101190.81;4973032;28;120789;-42
2022/01/08 03:30:50;;;;;;;0.65;0.57;;;;;;;1.65;87.04;101212.88;4973454;28;124017;-42
2022/01/08 03:33:15;;;;;;;0.35;0.22;;;;;;;1.64;87.49;101214.66;4973425;28;116840;-42
2022/01/08 03:35:41;;;;;;;0.00;0.00;;;;;;;1.51;87.16;101190.91;4973194;28;119519;-42
2022/01/08 03:38:06;;;;;;;0.22;0.03;;;;;;;1.58;87.54;101205.91;4973405;28;126810;-42
2022/01/08 03:40:31;;;;;;;5.85;0.45;;;;;;;1.55;87.24;101209.50;4973567;28;119276;-42
2022/01/08 03:42:57;;;;;;;2.05;1.23;;;;;;;1.50;87.30;101195.34;4972643;28;96694;-42
2022/01/08 03:45:22;;;;;;;0.00;0.00;;;;;;;1.57;87.48;101204.13;4972460;28;117348;-42
2022/01/08 03:50:16;;;;;;;0.05;0.05;;;;;;;1.54;87.55;101204.19;4974078;28;98034;-43
2022/01/08 03:52:41;;;;;;;0.38;0.17;;;;;;;1.28;87.57;101163.72;4973192;28;106789;-42
2022/01/08 03:55:07;;;;;;;0.35;0.15;;;;;;;1.44;87.50;101188.34;4974055;28;97000;-42
2022/01/08 03:57:33;;;;;;;0.50;0.30;;;;;;;1.49;87.97;101196.25;4971902;28;101273;-42
2022/01/08 03:59:58;;;;;;;0.20;0.20;;;;;;;1.49;87.65;101191.78;4973457;28;102103;-42
2022/01/08 04:02:24;;;;;;;1.08;0.45;;;;;;;1.58;87.40;101193.44;4974065;28;96617;-42
2022/01/08 04:04:49;;;;;;;0.10;0.10;;;;;;;1.59;87.62;101195.16;4972513;28;96798;-42
2022/01/08 04:07:14;;;;;;;2.22;0.40;;;;;;;1.52;87.60;101182.84;4973615;28;104989;-42
2022/01/08 04:09:40;;;;;;;0.65;0.47;;;;;;;1.62;87.36;101199.56;4973974;28;99298;-42
2022/01/08 04:12:07;;;;;;;0.32;0.32;;;;;;;1.58;87.40;101206.78;4973777;28;96457;-42
2022/01/08 04:14:46;;;;;;;0.00;0.00;;;;;;;1.45;87.74;101186.53;4972407;28;96799;-42
2022/01/08 04:17:14;;;;;;;4.07;0.28;;;;;;;1.55;87.86;101213.94;4973176;28;99036;-42
2022/01/08 04:19:39;;;;;;;2.72;0.20;;;;;;;1.43;87.57;101197.28;4973393;28;99264;-43
2022/01/08 04:22:11;;;;;;;0.32;0.25;;;;;;;1.51;87.62;101218.47;4973521;28;99893;-42
2022/01/08 04:24:38;;;;;;;0.00;0.00;;;;;;;1.41;87.34;101203.53;4973723;28;96674;-42
2022/01/08 04:27:03;;;;;;;0.40;0.20;;;;;;;1.45;87.78;101216.81;4972094;28;101105;-42
2022/01/08 04:29:29;;;;;;;0.85;0.20;;;;;;;1.42;87.56;101222.19;4973479;28;97818;-42
2022/01/08 04:31:54;;;;;;;0.22;0.10;;;;;;;1.45;87.59;101239.91;4973172;28;96647;-42
2022/01/08 04:34:19;;;;;;;0.10;0.10;;;;;;;1.32;87.70;101222.38;4973641;28;100642;-42
2022/01/08 04:36:45;;;;;;;0.20;0.20;;;;;;;1.41;87.56;101230.22;4973577;28;97704;-42
2022/01/08 04:39:10;;;;;;;0.22;0.22;;;;;;;1.41;87.95;101233.78;4972512;28;115270;-42
2022/01/08 04:41:35;;;;;;;0.17;0.15;;;;;;;1.47;87.84;101240.78;4972073;28;122744;-42
2022/01/08 04:44:00;;;;;;;0.68;0.22;;;;;;;1.41;87.87;101235.56;4973341;28;96866;-43
2022/01/08 04:46:26;;;;;;;0.05;0.05;;;;;;;1.46;88.01;101244.38;4972335;28;99362;-42
2022/01/08 04:48:51;;;;;;;0.35;0.22;;;;;;;1.36;88.05;101230.31;4972908;28;97776;-42
2022/01/08 04:51:16;;;;;;;0.05;0.03;;;;;;;1.48;88.02;101259.44;4972371;28;114487;-42
2022/01/08 04:53:42;;;;;;;7.20;0.63;;;;;;;1.38;87.85;101246.28;4973416;28;96741;-42
2022/01/08 04:56:07;;;;;;;0.20;0.05;;;;;;;1.37;88.16;101241.84;4972850;28;97819;-42
2022/01/08 04:58:32;;;;;;;0.00;0.00;;;;;;;1.40;88.32;101244.47;4973163;28;99267;-42
2022/01/08 05:00:58;;;;;;;0.13;0.13;;;;;;;1.28;88.15;101229.53;4973200;28;96979;-42
2022/01/08 05:03:23;;;;;;;0.10;0.10;;;;;;;1.31;88.05;101228.59;4973237;28;96778;-42
2022/01/08 05:05:49;;;;;;;0.17;0.17;;;;;;;1.33;87.92;101232.13;4972378;28;105412;-42
2022/01/08 05:08:14;;;;;;;0.43;0.28;;;;;;;1.25;87.79;101218.94;4972481;28;98808;-42
2022/01/08 05:10:40;;;;;;;0.22;0.22;;;;;;;1.25;88.19;101214.47;4972554;28;107373;-42
2022/01/08 05:13:05;;;;;;;6.55;0.45;;;;;;;1.35;88.04;101235.66;4972694;28;102060;-42
2022/01/08 05:15:34;;;;;;;0.13;0.13;;;;;;;1.37;88.16;101250.75;4972904;28;97884;-42
2022/01/08 05:18:00;;;;;;;0.95;0.50;;;;;;;1.26;87.89;101226.94;4971339;28;100783;-42
2022/01/08 05:20:31;;;;;;;0.20;0.20;;;;;;;1.25;88.20;101219.81;4973000;28;96532;-42
2022/01/08 05:23:00;;;;;;;0.00;0.00;;;;;;;1.23;87.98;101216.28;4972957;28;96676;-42
2022/01/08 05:25:26;;;;;;;1.45;0.85;;;;;;;1.22;87.87;101219.00;4971226;28;100768;-42
2022/01/08 05:27:52;;;;;;;0.30;0.30;;;;;;;1.32;88.15;101257.06;4971143;28;99285;-42
2022/01/08 05:30:19;;;;;;;0.03;0.03;;;;;;;1.30;87.95;101262.44;4972236;28;97328;-42
2022/01/08 05:32:45;;;;;;;0.80;0.40;;;;;;;1.27;87.99;101255.34;4970780;28;97117;-42
2022/01/08 05:35:11;;;;;;;0.25;0.25;;;;;;;1.30;88.17;101256.22;4972891;28;97386;-42
2022/01/08 05:37:36;;;;;;;0.80;0.55;;;;;;;1.26;88.19;101261.59;4970969;28;101056;-43
2022/01/08 05:40:03;;;;;;;2.67;0.50;;;;;;;1.16;88.11;101243.97;4971116;28;96573;-43
2022/01/08 05:42:28;;;;;;;0.32;0.32;;;;;;;1.30;88.41;101261.56;4971136;28;96821;-42
2022/01/08 05:44:53;;;;;;;4.05;1.17;;;;;;;1.32;88.04;101268.63;4972447;28;97832;-42
2022/01/08 05:47:21;;;;;;;0.32;0.28;;;;;;;1.31;88.07;101271.31;4972552;28;102983;-42
2022/01/08 05:49:46;;;;;;;0.93;0.60;;;;;;;1.33;88.25;101274.84;4972378;28;96565;-42
2022/01/08 05:52:12;;;;;;;0.88;0.28;;;;;;;1.34;88.63;101268.59;4972297;28;96900;-42
2022/01/08 05:54:37;;;;;;;0.30;0.15;;;;;;;1.36;88.57;101267.69;4971327;28;117925;-42
2022/01/08 05:57:03;;;;;;;0.25;0.22;;;;;;;1.35;88.27;101255.22;4971492;28;115695;-42
2022/01/08 05:59:28;;;;;;;0.25;0.20;;;;;;;1.28;88.41;101235.75;4972291;28;96451;-42
2022/01/08 06:01:54;;;;;;;0.80;0.70;;;;;;;1.42;88.50;101262.22;4972508;28;96693;-42
2022/01/08 06:04:20;;;;;;;2.90;0.30;;;;;;;1.35;88.50;101239.19;4972317;28;97440;-42
2022/01/08 06:06:45;;;;;;;0.52;0.20;;;;;;;1.41;88.46;101243.56;4971890;28;98875;-42
2022/01/08 06:09:11;;;;;;;0.10;0.10;;;;;;;1.51;88.72;101247.84;4972238;28;96723;-42
2022/01/08 06:11:37;;;;;;;0.10;0.10;;;;;;;1.46;88.61;101233.69;4971258;28;96770;-42
2022/01/08 06:14:02;;;;;;;0.00;0.00;;;;;;;1.46;88.29;101234.56;4971976;28;99184;-42
2022/01/08 06:16:38;;;;;;;0.45;0.40;;;;;;;1.54;88.48;101241.56;4971851;28;99302;-42
2022/01/08 06:19:09;;;;;;;0.40;0.32;;;;;;;1.53;88.58;101246.03;4971536;28;96919;-42
2022/01/08 06:21:36;;;;;;;2.20;0.52;;;;;;;1.44;88.32;101230.16;4970620;28;100465;-42
2022/01/08 06:24:01;;;;;;;0.25;0.22;;;;;;;1.56;88.28;101242.41;4971705;28;99396;-42
2022/01/08 06:26:27;;;;;;;2.55;0.22;;;;;;;1.44;88.25;101224.84;4972147;28;97695;-42
2022/01/08 06:28:52;;;;;;;4.28;0.55;;;;;;;1.54;88.01;101239.75;4972088;28;96585;-42
2022/01/08 06:31:19;;;;;;;0.70;0.28;;;;;;;1.52;88.12;101227.34;4971614;28;96694;-42
2022/01/08 06:33:44;;;;;;;0.00;0.00;;;;;;;1.41;88.38;101214.22;4971807;28;97959;-42
2022/01/08 06:36:10;;;;;;;0.32;0.20;;;;;;;1.47;88.08;101228.31;4972257;28;97276;-42
2022/01/08 06:38:35;;;;;;;0.25;0.22;;;;;;;1.38;88.44;101219.59;4971966;28;96539;-42
2022/01/08 06:41:00;;;;;;;0.20;0.13;;;;;;;1.35;88.42;101211.66;4971570;28;109250;-42
2022/01/08 06:43:29;;;;;;;0.88;0.55;;;;;;;1.27;88.02;101211.78;4971126;28;107648;-42
2022/01/08 06:45:54;;;;;;;0.20;0.20;;;;;;;1.31;88.33;101215.25;4970717;28;126747;-42
2022/01/08 06:48:19;;;;;;;0.08;0.08;;;;;;;1.43;88.22;101233.72;4970864;28;113464;-42
2022/01/08 06:50:44;;;;;;;0.08;0.08;;;;;;;1.35;88.14;101219.66;4971859;28;96735;-42
2022/01/08 06:53:10;;;;;;;1.73;0.20;;;;;;;1.32;89.14;101214.38;4970603;28;125101;-42
2022/01/08 06:55:35;;;;;;;0.40;0.40;;;;;;;1.30;88.59;101211.72;4971836;28;97768;-42
2022/01/08 06:58:01;;;;;;;0.00;0.00;;;;;;;1.37;89.06;101218.72;4971733;28;96507;-42
2022/01/08 07:00:26;;;;;;;0.85;0.35;;;;;;;1.47;89.09;101232.78;4972007;28;96799;-42
2022/01/08 07:02:51;;;;;;;0.40;0.35;;;;;;;1.47;89.08;101219.44;4970703;28;119943;-42
2022/01/08 07:05:17;;;;;;;0.20;0.20;;;;;;;1.50;89.25;101219.38;4971616;28;97865;-42
2022/01/08 07:07:42;;;;;;;1.75;0.40;;;;;;;1.45;89.28;101213.22;4971042;28;101935;-42
2022/01/08 07:10:08;;;;;;;0.20;0.20;;;;;;;1.44;89.50;101199.00;4971727;28;113911;-42
2022/01/08 07:12:33;;;;;;;1.33;0.73;;;;;;;1.55;89.27;101216.63;4975171;28;97490;-42
2022/01/08 07:14:58;;;;;;;0.45;0.45;;;;;;;1.48;89.09;101195.38;4974861;28;97851;-42
2022/01/08 07:17:23;;;;;;;0.13;0.13;;;;;;;1.61;89.74;101217.38;4974113;28;121594;-42
2022/01/08 07:19:49;;;;;;;1.52;1.02;;;;;;;1.56;89.22;101211.25;4974622;28;98595;-42
2022/01/08 07:22:15;;;;;;;0.10;0.03;;;;;;;1.51;90.36;101199.78;4974665;28;97848;-43
2022/01/08 07:24:40;;;;;;;1.00;0.38;;;;;;;1.59;89.86;101203.19;4974913;28;97809;-42
2022/01/08 07:27:05;;;;;;;0.15;0.15;;;;;;;1.64;90.11;101208.44;4974512;28;96623;-42
2022/01/08 07:29:31;;;;;;;3.53;0.68;;;;;;;1.45;90.24;101178.53;4974794;28;96824;-42
2022/01/08 07:31:56;;;;;;;0.00;0.00;;;;;;;1.61;90.13;101206.72;4973090;28;97843;-42
2022/01/08 07:34:24;;;;;;;0.10;0.10;;;;;;;1.51;89.85;101186.44;4974056;28;114572;-42
2022/01/08 07:36:56;;;;;;;0.08;0.08;;;;;;;1.61;90.49;101204.03;4975026;28;96451;-42
2022/01/08 07:39:21;;;;;;;2.30;0.53;;;;;;;1.52;89.80;101189.97;4974523;28;96811;-43
2022/01/08 07:41:46;;;;;;;3.20;0.95;;;;;;;1.61;90.09;101203.16;4974295;28;97286;-42
2022/01/08 07:44:12;;;;;;;0.32;0.13;;;;;;;1.52;90.44;101193.53;4956494;28;98930;-42
2022/01/08 07:46:37;;;;;;;0.32;0.25;;;;;;;1.51;90.02;101198.91;4974197;28;96633;-42
2022/01/08 07:49:02;;;;;;;3.05;1.33;;;;;;;1.51;89.65;101194.44;4974475;28;96801;-43
2022/01/08 07:51:28;;;;;;;0.25;0.25;;;;;;;1.62;90.38;101203.16;4973901;28;98056;-43
2022/01/08 07:53:53;;;;;;;0.20;0.20;;;;;;;1.50;90.45;101176.66;4973640;28;107836;-43
2022/01/08 07:56:18;;;;;;;1.80;1.15;;;;;;;1.51;90.28;101173.09;4972285;28;122630;-42
2022/01/08 07:58:44;;;;;;;3.97;1.00;;;;;;;1.63;90.28;101188.88;4974121;28;96724;-42
2022/01/08 08:01:10;;;;;;;0.25;0.25;;;;;;;1.66;90.58;101187.94;4973932;28;97443;-42
2022/01/08 08:03:35;;;;;;;1.17;0.85;;;;;;;1.66;90.29;101177.25;4973964;28;97742;-42
2022/01/08 08:06:01;;;;;;;3.28;1.30;;;;;;;1.69;90.52;101177.19;4974185;28;96504;-42
2022/01/08 08:08:26;;;;;;;2.60;1.20;;;;;;;1.64;90.91;101168.38;4974005;28;96762;-42
2022/01/08 08:10:51;;;;;;;1.23;0.90;;;;;;;1.60;91.53;101158.69;4972749;28;126543;-42
2022/01/08 08:13:18;;;;;;;2.80;0.80;;;;;;;1.61;90.89;101152.44;4974135;28;97875;-42
2022/01/08 08:15:44;;;;;;;1.33;1.05;;;;;;;1.62;90.97;101154.19;4972264;28;96722;-42
2022/01/08 08:18:11;;;;;;;1.48;1.23;;;;;;;1.74;90.93;101177.09;4972302;28;96719;-42
2022/01/08 08:20:36;;;;;;;1.83;0.90;;;;;;;1.73;91.39;101170.00;4971699;28;100729;-42
2022/01/08 08:23:02;;;;;;;1.38;1.10;;;;;;;1.65;90.72;101151.47;4973888;28;97384;-42
2022/01/08 08:25:27;;;;;;;1.77;1.25;;;;;;;1.73;91.11;101162.00;4972616;28;121737;-42
2022/01/08 08:27:52;;;;;;;2.60;1.63;;;;;;;1.68;91.54;101148.75;4973598;28;96817;-43
2022/01/08 08:30:18;;;;;;;0.50;0.50;;;;;;;1.69;90.94;101164.75;4972545;28;120373;-42
2022/01/08 08:32:43;;;;;;;2.05;0.55;;;;;;;1.58;91.21;101140.03;4973253;28;97896;-43
2022/01/08 08:35:10;;;;;;;0.65;0.65;;;;;;;1.62;91.30;101139.06;4972728;28;118121;-43
2022/01/08 08:37:36;;;;;;;1.52;1.08;;;;;;;1.76;90.82;101149.44;4972381;28;96800;-43
2022/01/08 08:40:03;;;;;;;2.10;0.98;;;;;;;1.74;90.46;101137.94;4973295;28;97468;-42
2022/01/08 08:42:29;;;;;;;6.30;0.57;;;;;;;1.69;90.95;101138.03;4973035;28;99503;-43
2022/01/08 08:45:07;;;;;;;2.08;1.55;;;;;;;1.71;91.37;101143.31;4972832;28;96542;-42
2022/01/08 08:47:33;;;;;;;3.70;1.30;;;;;;;1.64;91.83;101123.88;4971805;28;96828;-42
2022/01/08 08:49:59;;;;;;;0.85;0.77;;;;;;;1.74;91.65;101135.28;4973205;28;97988;-42
2022/01/08 08:52:25;;;;;;;1.63;1.30;;;;;;;1.63;91.29;101114.13;4971445;28;100836;-42
2022/01/08 08:54:51;;;;;;;2.40;1.40;;;;;;;1.66;91.18;101118.50;4973206;28;96592;-43
2022/01/08 08:57:17;;;;;;;1.90;1.25;;;;;;;1.66;92.03;101115.84;4971674;28;96810;-42
2022/01/08 08:59:42;;;;;;;2.40;1.60;;;;;;;1.68;91.54;101111.34;4972519;28;107807;-42
2022/01/08 09:02:08;;;;;;;1.05;0.95;;;;;;;1.81;92.13;101128.00;4972857;28;122903;-42
2022/01/08 09:04:34;;;;;;;2.72;2.13;;;;;;;1.73;91.50;101112.13;4972001;28;96527;-42
2022/01/08 09:06:59;;;;;;;3.10;1.98;;;;;;;1.86;91.46;101129.66;4973201;28;96794;-42
2022/01/08 09:09:25;;;;;;;1.90;1.65;;;;;;;1.88;91.47;101113.59;4970684;28;111376;-42
2022/01/08 09:11:50;;;;;;;3.00;1.88;;;;;;;1.87;91.63;101112.72;4972708;28;99085;-43
2022/01/08 09:14:16;;;;;;;1.40;1.05;;;;;;;1.84;91.34;101101.25;4973002;28;96602;-42
2022/01/08 09:16:47;;;;;;;2.13;1.23;;;;;;;1.83;91.52;101094.13;4973045;28;96741;-43
2022/01/08 09:19:12;;;;;;;3.45;2.30;;;;;;;1.98;91.43;101111.59;4971255;28;98810;-42
2022/01/08 09:21:37;;;;;;;3.80;2.20;;;;;;;1.93;91.35;101079.66;4973097;28;97245;-42
2022/01/08 09:24:03;;;;;;;2.72;1.98;;;;;;;2.02;91.33;101082.13;4972777;28;100594;-42
2022/01/08 09:26:28;;;;;;;7.50;2.33;;;;;;;2.07;91.01;101082.91;4973145;28;96747;-42
2022/01/08 09:28:54;;;;;;;2.67;1.23;;;;;;;1.99;91.41;101060.81;4971421;28;126343;-43
2022/01/08 09:31:19;;;;;;;7.47;2.35;;;;;;;2.00;91.04;101059.94;4971262;28;124041;-43
2022/01/08 09:33:44;;;;;;;2.63;2.53;;;;;;;2.03;91.50;101061.66;4970183;28;96674;-42
2022/01/08 09:36:10;;;;;;;4.15;1.88;;;;;;;2.05;91.05;101051.78;4971730;28;122457;-43
2022/01/08 09:38:35;;;;;;;3.05;1.73;;;;;;;1.96;91.11;101038.66;4972416;28;97410;-42
2022/01/08 09:41:01;;;;;;;2.85;2.42;;;;;;;2.03;90.83;101049.16;4972285;28;99405;-42
2022/01/08 09:43:26;;;;;;;3.65;1.85;;;;;;;2.05;91.46;101057.13;4972542;28;96753;-42
2022/01/08 09:45:51;;;;;;;3.95;2.15;;;;;;;2.07;91.26;101055.28;4972792;28;97239;-43
2022/01/08 09:48:17;;;;;;;4.63;1.90;;;;;;;1.96;91.12;101027.97;4971941;28;112784;-43
2022/01/08 09:50:43;;;;;;;7.15;2.83;;;;;;;1.99;91.39;101025.22;4972741;28;97890;-42
2022/01/08 09:53:09;;;;;;;1.08;0.98;;;;;;;2.00;91.04;101018.94;4970768;28;97833;-42
2022/01/08 09:55:34;;;;;;;2.88;1.63;;;;;;;2.02;90.93;101015.31;4972526;28;96759;-43
2022/01/08 09:58:00;;;;;;;3.00;2.03;;;;;;;1.96;90.93;100990.59;4971649;28;97975;-43
2022/01/08 10:00:25;;;;;;;2.15;1.52;;;;;;;2.03;91.47;100987.72;4970825;28;101043;-43
2022/01/08 10:02:51;;;;;;;5.10;2.78;;;;;;;2.20;90.96;101018.50;4972316;28;96581;-43
2022/01/08 10:05:17;;;;;;;1.80;1.25;;;;;;;2.08;91.14;100983.13;4972182;28;96738;-43
2022/01/08 10:07:55;;;;;;;2.63;1.83;;;;;;;2.23;90.74;100987.22;4972183;28;97981;-42
2022/01/08 10:10:21;;;;;;;1.15;0.82;;;;;;;2.15;90.64;100970.50;4972121;28;98286;-43
2022/01/08 10:12:48;;;;;;;4.55;2.60;;;;;;;2.31;90.69;100981.66;4971854;28;114796;-43
2022/01/08 10:18:01;;;;;;;0.68;0.63;;;;;;;2.36;90.63;100966.41;4972168;28;96669;-42
2022/01/08 10:20:49;;;;;;;2.20;1.33;;;;;;;2.38;90.52;100958.34;4970673;28;98946;-42
2022/01/08 10:23:17;;;;;;;2.95;1.98;;;;;;;2.36;89.87;100941.47;4971476;28;96746;-43
2022/01/08 10:25:54;;;;;;;5.80;3.17;;;;;;;2.37;89.97;100937.88;4970690;28;96831;-42
2022/01/08 10:28:36;;;;;;;10.57;2.20;;;;;;;2.46;89.71;100938.53;4971940;28;97329;-42
2022/01/08 10:31:06;;;;;;;1.60;1.48;;;;;;;2.45;90.13;100918.03;4972092;28;98045;-42
2022/01/08 10:33:31;;;;;;;4.78;2.63;;;;;;;2.35;89.36;100892.47;4971813;28;96628;-42
2022/01/08 10:35:56;;;;;;;7.47;2.08;;;;;;;2.53;89.54;100902.69;4971756;28;96582;-42
2022/01/08 10:38:27;;;;;;;2.92;1.02;;;;;;;2.60;89.11;100902.50;4970957;28;123957;-42
2022/01/08 10:40:52;;;;;;;2.17;1.58;;;;;;;2.65;89.31;100887.22;4970870;28;101076;-43
2022/01/08 10:43:22;;;;;;;9.27;2.28;;;;;;;2.58;88.79;100862.44;4970950;28;120771;-42
2022/01/08 10:45:48;;;;;;;3.13;1.67;;;;;;;2.71;88.99;100881.69;4971958;28;96711;-42
2022/01/08 10:48:24;;;;;;;2.47;1.33;;;;;;;2.72;88.47;100867.41;4974368;28;99345;-43
2022/01/08 10:50:49;;;;;;;2.67;1.60;;;;;;;2.85;88.39;100867.91;4975416;28;97267;-42
2022/01/08 10:53:14;;;;;;;2.45;1.20;;;;;;;2.76;87.87;100839.63;4975103;28;96516;-43
2022/01/08 10:55:40;;;;;;;1.10;0.60;;;;;;;2.88;87.15;100847.28;4974661;28;103162;-43
2022/01/08 10:58:06;;;;;;;1.95;0.70;;;;;;;2.85;86.95;100814.41;4973572;28;101131;-42
2022/01/08 11:00:32;;;;;;;1.38;0.85;;;;;;;2.88;86.34;100812.50;4974739;28;97844;-42
2022/01/08 11:02:57;;;;;;;1.10;0.52;;;;;;;2.94;86.53;100808.78;4975164;28;96486;-43
2022/01/08 11:05:23;;;;;;;2.63;1.30;;;;;;;2.98;85.84;100799.75;4973937;28;96800;-42
2022/01/08 11:07:48;;;;;;;2.90;1.33;;;;;;;3.14;86.64;100805.47;4974862;28;97315;-42
2022/01/08 11:10:17;;;;;;;4.07;1.55;;;;;;;3.16;86.06;100803.63;4974612;28;98804;-42
2022/01/08 11:12:45;;;;;;;10.77;0.90;;;;;;;3.11;86.04;100777.03;4974096;28;96585;-42
2022/01/08 11:17:52;;;;;;;;;;;;;;;3.29;85.40;100780.91;4974876;28;97490;-43
2022/01/08 11:20:24;;;;;;;2.88;1.55;;;;;;;3.17;86.14;100743.81;4973172;28;101329;-42
2022/01/08 11:22:55;;;;;;;3.58;1.98;;;;;;;3.32;86.09;100761.22;4974901;28;96517;-43
2022/01/08 11:25:21;;;;;;;8.23;2.80;;;;;;;3.23;85.73;100740.97;4973216;28;96684;-42
2022/01/08 11:28:00;;;;;;;1.35;1.15;;;;;;;3.34;85.63;100759.34;4972898;28;100944;-42
2022/01/08 11:30:29;;;;;;;3.10;1.80;;;;;;;3.23;86.09;100729.38;4973310;28;100726;-42
2022/01/08 11:32:58;;;;;;;3.03;1.02;;;;;;;3.31;86.34;100738.91;4972919;28;96571;-42
2022/01/08 11:35:25;;;;;;;1.98;1.00;;;;;;;3.30;86.22;100723.78;4972991;28;96845;-42
2022/01/08 11:37:54;;;;;;;3.58;1.90;;;;;;;3.33;86.59;100731.69;4973303;28;98919;-42
2022/01/08 11:40:22;;;;;;;1.08;0.52;;;;;;;3.20;86.91;100703.59;4974190;28;97780;-42
2022/01/08 11:42:47;;;;;;;2.67;1.20;;;;;;;3.30;86.92;100718.41;4974302;28;96754;-42
2022/01/08 11:45:27;;;;;;;2.75;1.48;;;;;;;3.23;87.08;100686.56;4974437;28;96800;-42
2022/01/08 11:47:56;;;;;;;2.85;1.25;;;;;;;3.30;87.14;100683.63;4972587;28;101018;-42
2022/01/08 11:50:32;;;;;;;4.97;1.67;;;;;;;3.21;87.59;100673.22;4973935;28;97321;-42
2022/01/08 11:53:20;;;;;;;2.85;1.15;;;;;;;3.31;87.65;100668.44;4974238;28;96629;-42